createdAt,value
2023-04-16T00:00:50.192Z,99727.41
2023-04-16T00:03:17.046Z,99728.56
2023-04-16T00:05:43.874Z,99731.84
2023-04-16T00:08:10.548Z,99731.69
2023-04-16T00:10:37.179Z,99737.09
2023-04-16T00:13:04.868Z,99741.81
2023-04-16T00:15:31.516Z,99734.94
2023-04-16T00:17:58.168Z,99731.84
2023-04-16T00:20:24.838Z,99741.66
2023-04-16T00:22:51.349Z,99754.06
2023-04-16T00:25:17.935Z,99748.53
2023-04-16T00:27:44.539Z,99745.09
2023-04-16T00:30:11.917Z,99747.22
2023-04-16T00:32:38.501Z,99751.47
2023-04-16T00:35:05.777Z,99750.84
2023-04-16T00:37:32.322Z,99750.84
2023-04-16T00:39:58.936Z,99765.34
2023-04-16T00:42:25.592Z,99752.31
2023-04-16T00:44:52.023Z,99762.09
2023-04-16T00:47:19.837Z,99750.50
2023-04-16T00:49:46.888Z,99755.06
2023-04-16T00:52:13.528Z,99753.75
2023-04-16T00:54:40.360Z,99751.47
2023-04-16T00:57:06.814Z,99753.44
2023-04-16T00:59:33.593Z,99756.19
2023-04-16T01:02:00.542Z,99750.81
2023-04-16T01:04:27.508Z,99761.91
2023-04-16T01:06:54.995Z,99761.09
2023-04-16T01:09:21.741Z,99761.91
2023-04-16T01:11:48.307Z,99750.50
2023-04-16T01:14:15.373Z,99758.00
2023-04-16T01:16:42.101Z,99753.91
2023-04-16T01:19:09.085Z,99756.19
2023-04-16T01:21:36.114Z,99751.63
2023-04-16T01:24:04.610Z,99761.91
2023-04-16T01:26:31.703Z,99759.00
2023-04-16T01:28:59.937Z,99767.44
2023-04-16T01:31:26.906Z,99764.97
2023-04-16T01:33:53.703Z,99770.34
2023-04-16T01:36:20.683Z,99772.31
2023-04-16T01:38:47.908Z,99762.72
2023-04-16T01:41:14.909Z,99765.81
2023-04-16T01:43:42.523Z,99768.59
2023-04-16T01:46:16.056Z,99765.66
2023-04-16T01:48:44.838Z,99769.56
2023-04-16T01:51:14.306Z,99766.31
2023-04-16T01:53:43.711Z,99763.72
2023-04-16T01:56:13.829Z,99768.28
2023-04-16T01:58:42.761Z,99773.00
2023-04-16T02:01:09.800Z,99768.78
2023-04-16T02:03:36.777Z,99770.88
2023-04-16T02:06:04.288Z,99779.19
2023-04-16T02:08:31.040Z,99767.50
2023-04-16T02:10:58.353Z,99781.97
2023-04-16T02:13:26.129Z,99778.53
2023-04-16T02:15:53.013Z,99774.16
2023-04-16T02:18:19.928Z,99778.53
2023-04-16T02:20:47.983Z,99772.03
2023-04-16T02:23:15.091Z,99774.31
2023-04-16T02:25:43.203Z,99783.41
2023-04-16T02:28:14.123Z,99792.19
2023-04-16T02:30:40.912Z,99786.16
2023-04-16T02:33:08.703Z,99788.13
2023-04-16T02:35:35.630Z,99789.41
2023-04-16T02:38:03.001Z,99794.13
2023-04-16T02:40:30.027Z,99786.16
2023-04-16T02:42:56.884Z,99798.34
2023-04-16T02:45:24.191Z,99802.44
2023-04-16T02:47:51.397Z,99798.53
2023-04-16T02:50:18.458Z,99800.31
2023-04-16T02:52:45.141Z,99801.94
2023-04-16T02:55:11.911Z,99804.53
2023-04-16T02:57:38.510Z,99805.31
2023-04-16T03:00:05.581Z,99807.72
2023-04-16T03:02:32.383Z,99812.59
2023-04-16T03:04:58.976Z,99812.25
2023-04-16T03:07:26.108Z,99811.78
2023-04-16T03:09:52.782Z,99807.22
2023-04-16T03:12:19.555Z,99821.34
2023-04-16T03:14:46.392Z,99824.06
2023-04-16T03:17:13.043Z,99817.06
2023-04-16T03:19:39.664Z,99814.94
2023-04-16T03:22:06.390Z,99824.41
2023-04-16T03:24:33.069Z,99830.38
2023-04-16T03:26:59.704Z,99831.97
2023-04-16T03:29:27.292Z,99832.94
2023-04-16T03:31:53.707Z,99839.19
2023-04-16T03:34:20.450Z,99840.00
2023-04-16T03:36:46.942Z,99837.25
2023-04-16T03:39:13.650Z,99839.97
2023-04-16T03:41:40.237Z,99846.00
2023-04-16T03:44:06.901Z,99843.72
2023-04-16T03:46:33.607Z,99851.28
2023-04-16T03:49:00.437Z,99849.78
2023-04-16T03:51:27.113Z,99848.44
2023-04-16T03:53:53.834Z,99859.78
2023-04-16T03:56:20.784Z,99861.50
2023-04-16T03:58:47.452Z,99858.88
2023-04-16T04:01:14.051Z,99866.03
2023-04-16T04:03:41.110Z,99871.34
2023-04-16T04:06:08.586Z,99875.22
2023-04-16T04:08:35.254Z,99878.31
2023-04-16T04:11:02.018Z,99880.13
2023-04-16T04:13:28.734Z,99890.16
2023-04-16T04:15:55.689Z,99881.69
2023-04-16T04:18:22.464Z,99885.63
2023-04-16T04:20:48.934Z,99878.50
2023-04-16T04:23:15.767Z,99890.47
2023-04-16T04:25:42.593Z,99885.25
2023-04-16T04:28:09.089Z,99887.50
2023-04-16T04:30:36.042Z,99883.56
2023-04-16T04:33:02.574Z,99884.50
2023-04-16T04:35:29.192Z,99893.16
2023-04-16T04:37:55.792Z,99884.75
2023-04-16T04:40:22.423Z,99888.19
2023-04-16T04:42:49.051Z,99901.31
2023-04-16T04:45:16.072Z,99894.66
2023-04-16T04:47:42.755Z,99897.16
2023-04-16T04:50:09.679Z,99897.91
2023-04-16T04:52:36.307Z,99898.84
2023-04-16T04:55:02.820Z,99898.84
2023-04-16T04:57:29.522Z,99903.44
2023-04-16T04:59:56.384Z,99906.06
2023-04-16T05:02:23.075Z,99911.06
2023-04-16T05:04:49.663Z,99905.72
2023-04-16T05:07:16.491Z,99913.38
2023-04-16T05:09:42.979Z,99909.31
2023-04-16T05:12:09.473Z,99922.47
2023-04-16T05:14:36.717Z,99918.59
2023-04-16T05:17:03.441Z,99922.88
2023-04-16T05:19:30.087Z,99924.41
2023-04-16T05:21:56.556Z,99925.72
2023-04-16T05:24:23.328Z,99918.03
2023-04-16T05:26:49.979Z,99923.72
2023-04-16T05:29:16.847Z,99928.59
2023-04-16T05:31:44.224Z,99937.84
2023-04-16T05:34:10.846Z,99943.25
2023-04-16T05:36:37.345Z,99948.28
2023-04-16T05:39:04.071Z,99952.19
2023-04-16T05:41:30.991Z,99947.06
2023-04-16T05:43:57.578Z,99956.81
2023-04-16T05:46:24.087Z,99959.56
2023-04-16T05:48:51.379Z,99956.13
2023-04-16T05:51:18.190Z,99961.13
2023-04-16T05:53:44.702Z,99959.38
2023-04-16T05:56:11.420Z,99954.69
2023-04-16T05:58:38.046Z,99965.38
2023-04-16T06:01:05.191Z,99959.75
2023-04-16T06:03:31.877Z,99965.28
2023-04-16T06:05:58.968Z,99969.38
2023-04-16T06:08:25.633Z,99979.13
2023-04-16T06:10:53.219Z,99970.34
2023-04-16T06:13:19.687Z,99968.72
2023-04-16T06:15:46.842Z,99981.22
2023-04-16T06:18:13.530Z,99968.53
2023-04-16T06:20:40.543Z,99964.06
2023-04-16T06:23:07.046Z,99968.84
2023-04-16T06:25:33.693Z,99974.78
2023-04-16T06:28:00.302Z,99980.94
2023-04-16T06:30:27.022Z,99974.56
2023-04-16T06:32:53.727Z,99985.31
2023-04-16T06:35:20.380Z,99989.47
2023-04-16T06:37:47.323Z,99992.97
2023-04-16T06:40:14.266Z,99990.59
2023-04-16T06:42:41.851Z,99995.81
2023-04-16T06:45:09.890Z,99981.88
2023-04-16T06:47:36.510Z,99986.13
2023-04-16T06:50:03.459Z,99983.34
2023-04-16T06:52:30.347Z,99993.22
2023-04-16T06:54:57.055Z,99989.19
2023-04-16T06:57:23.824Z,99992.88
2023-04-16T06:59:50.461Z,99991.06
2023-04-16T07:02:17.329Z,99999.03
2023-04-16T07:04:43.972Z,99990.94
2023-04-16T07:07:10.476Z,99987.53
2023-04-16T07:09:37.005Z,99992.41
2023-04-16T07:12:03.815Z,99995.47
2023-04-16T07:14:30.504Z,99994.38
2023-04-16T07:16:57.265Z,99996.69
2023-04-16T07:19:24.125Z,99994.91
2023-04-16T07:21:51.318Z,99997.97
2023-04-16T07:24:18.113Z,99998.72
2023-04-16T07:26:44.625Z,99991.19
2023-04-16T07:29:11.528Z,99993.56
2023-04-16T07:31:38.544Z,100008.25
2023-04-16T07:34:05.423Z,100002.53
2023-04-16T07:36:32.249Z,100004.22
2023-04-16T07:38:58.766Z,100012.72
2023-04-16T07:41:25.488Z,100005.19
2023-04-16T07:43:52.042Z,100009.00
2023-04-16T07:46:18.586Z,100006.34
2023-04-16T07:48:45.336Z,100010.25
2023-04-16T07:51:12.290Z,100015.84
2023-04-16T07:53:38.746Z,100024.69
2023-04-16T07:56:05.574Z,100016.25
2023-04-16T07:58:32.381Z,100027.34
2023-04-16T08:00:59.073Z,100024.66
2023-04-16T08:03:25.842Z,100029.13
2023-04-16T08:05:52.816Z,100017.53
2023-04-16T08:08:19.350Z,100027.66
2023-04-16T08:10:46.302Z,100026.53
2023-04-16T08:13:12.938Z,100028.91
2023-04-16T08:15:40.777Z,100021.31
2023-04-16T08:18:12.762Z,100028.22
2023-04-16T08:20:39.505Z,100035.63
2023-04-16T08:23:06.163Z,100035.53
2023-04-16T08:25:32.726Z,100026.97
2023-04-16T08:27:59.768Z,100040.59
2023-04-16T08:30:26.442Z,100042.63
2023-04-16T08:32:52.988Z,100039.97
2023-04-16T08:35:19.652Z,100046.66
2023-04-16T08:37:46.489Z,100041.19
2023-04-16T08:40:13.332Z,100050.88
2023-04-16T08:42:45.290Z,100048.41
2023-04-16T08:45:17.327Z,100048.09
2023-04-16T08:47:51.804Z,100053.44
2023-04-16T08:50:28.323Z,100054.50
2023-04-16T08:53:09.122Z,100064.03
2023-04-16T08:55:38.528Z,100055.72
2023-04-16T08:58:18.749Z,100057.72
2023-04-16T09:00:46.489Z,100060.56
2023-04-16T09:03:13.089Z,100063.06
2023-04-16T09:05:40.202Z,100060.47
2023-04-16T09:08:06.929Z,100058.69
2023-04-16T09:10:34.637Z,100059.22
2023-04-16T09:13:01.463Z,100069.19
2023-04-16T09:15:29.438Z,100064.84
2023-04-16T09:17:58.965Z,100071.56
2023-04-16T09:20:26.079Z,100067.19
2023-04-16T09:22:52.708Z,100064.88
2023-04-16T09:25:20.986Z,100072.91
2023-04-16T09:27:50.331Z,100069.63
2023-04-16T09:30:24.711Z,100077.44
2023-04-16T09:32:52.777Z,100084.00
2023-04-16T09:35:19.962Z,100082.06
2023-04-16T09:38:06.755Z,100086.72
2023-04-16T09:40:33.497Z,100089.28
2023-04-16T09:43:00.894Z,100087.25
2023-04-16T09:45:31.699Z,100081.56
2023-04-16T09:48:04.654Z,100088.22
2023-04-16T09:50:31.410Z,100095.53
2023-04-16T09:53:02.443Z,100086.63
2023-04-16T09:55:29.172Z,100095.16
2023-04-16T09:58:00.874Z,100104.56
2023-04-16T10:00:29.198Z,100091.84
2023-04-16T10:03:06.699Z,100100.81
2023-04-16T10:05:33.853Z,100098.34
2023-04-16T10:08:01.893Z,100091.97
2023-04-16T10:10:29.133Z,100097.66
2023-04-16T10:12:55.765Z,100095.53
2023-04-16T10:15:22.830Z,100095.38
2023-04-16T10:17:50.372Z,100105.94
2023-04-16T10:20:18.378Z,100100.28
2023-04-16T10:22:45.235Z,100103.97
2023-04-16T10:25:12.896Z,100111.19
2023-04-16T10:27:40.376Z,100106.25
2023-04-16T10:30:08.619Z,100109.63
2023-04-16T10:32:36.327Z,100105.06
2023-04-16T10:35:02.962Z,100104.56
2023-04-16T10:37:31.288Z,100110.84
2023-04-16T10:40:00.945Z,100108.22
2023-04-16T10:42:28.054Z,100108.44
2023-04-16T10:44:54.616Z,100107.81
2023-04-16T10:47:24.541Z,100105.72
2023-04-16T10:49:51.880Z,100115.38
2023-04-16T10:52:18.586Z,100108.28
2023-04-16T10:54:46.736Z,100106.91
2023-04-16T10:57:18.272Z,100123.00
2023-04-16T10:59:45.310Z,100111.06
2023-04-16T11:02:17.932Z,100117.16
2023-04-16T11:04:50.021Z,100113.88
2023-04-16T11:07:19.170Z,100109.28
2023-04-16T11:10:04.128Z,100122.53
2023-04-16T11:12:40.376Z,100121.16
2023-04-16T11:15:09.301Z,100120.88
2023-04-16T11:17:52.831Z,100112.91
2023-04-16T11:20:23.969Z,100110.47
2023-04-16T11:22:52.172Z,100105.13
2023-04-16T11:25:22.894Z,100108.94
2023-04-16T11:27:50.082Z,100112.59
2023-04-16T11:30:18.660Z,100116.09
2023-04-16T11:32:46.020Z,100121.50
2023-04-16T11:35:17.704Z,100121.59
2023-04-16T11:37:45.422Z,100117.28
2023-04-16T11:40:12.710Z,100107.72
2023-04-16T11:42:40.846Z,100110.25
2023-04-16T11:45:09.606Z,100107.25
2023-04-16T11:47:46.954Z,100108.31
2023-04-16T11:50:31.390Z,100117.75
2023-04-16T11:53:03.755Z,100114.38
2023-04-16T11:55:31.147Z,100116.94
2023-04-16T11:57:57.765Z,100111.63
2023-04-16T12:00:25.030Z,100107.66
2023-04-16T12:02:53.548Z,100107.25
2023-04-16T12:05:31.340Z,100113.31
2023-04-16T12:07:58.996Z,100107.28
2023-04-16T12:10:27.084Z,100110.47
2023-04-16T12:12:54.841Z,100114.13
2023-04-16T12:15:21.585Z,100113.72
2023-04-16T12:17:48.750Z,100104.41
2023-04-16T12:20:15.771Z,100110.44
2023-04-16T12:22:47.377Z,100105.13
2023-04-16T12:25:15.980Z,100105.50
2023-04-16T12:27:47.030Z,100110.44
2023-04-16T12:30:21.133Z,100108.06
2023-04-16T12:32:50.569Z,100106.47
2023-04-16T12:35:31.548Z,100117.34
2023-04-16T12:37:58.414Z,100111.69
2023-04-16T12:40:24.987Z,100115.28
2023-04-16T12:42:51.515Z,100104.78
2023-04-16T12:45:18.499Z,100112.09
2023-04-16T12:47:45.054Z,100106.88
2023-04-16T12:50:11.868Z,100106.44
2023-04-16T12:52:38.496Z,100108.09
2023-04-16T12:55:05.651Z,100113.31
2023-04-16T12:57:32.296Z,100111.72
2023-04-16T12:59:59.211Z,100108.09
2023-04-16T13:02:26.265Z,100113.31
2023-04-16T13:04:54.118Z,100111.72
2023-04-16T13:07:21.223Z,100110.03
2023-04-16T13:09:48.664Z,100106.47
2023-04-16T13:12:15.646Z,100113.66
2023-04-16T13:14:44.619Z,100113.69
2023-04-16T13:17:11.752Z,100106.81
2023-04-16T13:19:38.306Z,100107.66
2023-04-16T13:22:05.042Z,100111.69
2023-04-16T13:24:32.016Z,100116.06
2023-04-16T13:26:58.596Z,100118.41
2023-04-16T13:29:25.049Z,100120.69
2023-04-16T13:31:52.051Z,100116.09
2023-04-16T13:34:18.593Z,100115.09
2023-04-16T13:36:45.270Z,100117.41
2023-04-16T13:39:11.988Z,100118.47
2023-04-16T13:41:38.830Z,100127.16
2023-04-16T13:44:06.389Z,100118.88
2023-04-16T13:46:33.382Z,100128.38
2023-04-16T13:48:59.989Z,100127.69
2023-04-16T13:51:27.734Z,100124.25
2023-04-16T13:53:55.896Z,100120.94
2023-04-16T13:56:22.704Z,100118.50
2023-04-16T13:58:49.505Z,100129.50
2023-04-16T14:01:17.354Z,100131.78
2023-04-16T14:03:44.253Z,100122.22
2023-04-16T14:06:10.962Z,100126.34
2023-04-16T14:08:38.292Z,100130.09
2023-04-16T14:11:06.432Z,100137.59
2023-04-16T14:13:33.099Z,100134.78
2023-04-16T14:15:59.909Z,100136.66
2023-04-16T14:18:26.481Z,100139.34
2023-04-16T14:20:53.317Z,100137.38
2023-04-16T14:23:20.104Z,100148.09
2023-04-16T14:25:46.755Z,100143.63
2023-04-16T14:28:15.458Z,100139.19
2023-04-16T14:30:42.330Z,100141.59
2023-04-16T14:33:08.894Z,100140.03
2023-04-16T14:35:36.066Z,100142.22
2023-04-16T14:38:02.821Z,100141.84
2023-04-16T14:40:29.553Z,100145.06
2023-04-16T14:42:56.246Z,100146.69
2023-04-16T14:45:22.868Z,100142.13
2023-04-16T14:47:50.752Z,100144.91
2023-04-16T14:50:17.394Z,100149.91
2023-04-16T14:52:43.801Z,100142.63
2023-04-16T14:55:10.729Z,100153.03
2023-04-16T14:57:38.450Z,100149.78
2023-04-16T15:00:10.381Z,100145.84
2023-04-16T15:02:37.521Z,100149.53
2023-04-16T15:05:04.467Z,100147.91
2023-04-16T15:07:31.565Z,100156.19
2023-04-16T15:09:58.917Z,100155.56
2023-04-16T15:12:26.463Z,100152.81
2023-04-16T15:14:53.014Z,100167.22
2023-04-16T15:17:20.417Z,100163.84
2023-04-16T15:19:47.596Z,100163.44
2023-04-16T15:22:14.781Z,100163.69
2023-04-16T15:24:41.309Z,100164.94
2023-04-16T15:27:11.583Z,100177.66
2023-04-16T15:29:38.872Z,100175.75
2023-04-16T15:32:06.929Z,100177.88
2023-04-16T15:34:33.537Z,100169.28
2023-04-16T15:37:00.415Z,100171.50
2023-04-16T15:39:27.082Z,100169.44
2023-04-16T15:42:01.596Z,100169.16
2023-04-16T15:44:31.024Z,100173.72
2023-04-16T15:46:57.528Z,100167.75
2023-04-16T15:49:24.780Z,100169.00
2023-04-16T15:51:52.270Z,100167.91
2023-04-16T15:54:19.150Z,100174.00
2023-04-16T15:56:46.595Z,100180.63
2023-04-16T15:59:13.634Z,100177.75
2023-04-16T16:01:40.523Z,100184.25
2023-04-16T16:04:07.981Z,100183.34
2023-04-16T16:06:35.029Z,100193.44
2023-04-16T16:09:01.842Z,100200.94
2023-04-16T16:11:28.676Z,100193.81
2023-04-16T16:13:55.440Z,100205.63
2023-04-16T16:16:22.051Z,100207.34
2023-04-16T16:18:48.792Z,100207.97
2023-04-16T16:21:15.692Z,100211.22
2023-04-16T16:23:42.331Z,100211.84
2023-04-16T16:26:09.255Z,100219.88
2023-04-16T16:28:37.682Z,100216.38
2023-04-16T16:31:06.090Z,100216.59
2023-04-16T16:33:33.140Z,100225.69
2023-04-16T16:35:59.736Z,100226.63
2023-04-16T16:38:26.265Z,100225.88
2023-04-16T16:40:52.774Z,100225.81
2023-04-16T16:43:20.255Z,100227.16
2023-04-16T16:45:47.189Z,100230.31
2023-04-16T16:48:13.759Z,100232.38
2023-04-16T16:50:40.356Z,100232.31
2023-04-16T16:53:06.908Z,100238.28
2023-04-16T16:55:35.148Z,100228.56
2023-04-16T16:58:01.803Z,100231.97
2023-04-16T17:00:28.525Z,100241.09
2023-04-16T17:02:55.198Z,100245.84
2023-04-16T17:05:21.992Z,100249.44
2023-04-16T17:07:48.547Z,100245.91
2023-04-16T17:10:20.212Z,100249.66
2023-04-16T17:12:51.060Z,100247.47
2023-04-16T17:15:20.690Z,100254.19
2023-04-16T17:17:48.504Z,100253.94
2023-04-16T17:20:15.725Z,100251.19
2023-04-16T17:22:42.664Z,100263.63
2023-04-16T17:25:09.552Z,100265.59
2023-04-16T17:27:36.236Z,100264.78
2023-04-16T17:30:04.990Z,100271.44
2023-04-16T17:32:32.585Z,100275.06
2023-04-16T17:35:00.988Z,100277.53
2023-04-16T17:37:27.782Z,100274.53
2023-04-16T17:39:54.551Z,100276.50
2023-04-16T17:42:21.676Z,100282.56
2023-04-16T17:44:48.329Z,100287.69
2023-04-16T17:47:15.070Z,100287.69
2023-04-16T17:49:41.676Z,100283.50
2023-04-16T17:52:08.307Z,100283.97
2023-04-16T17:54:35.335Z,100288.38
2023-04-16T17:57:02.235Z,100295.56
2023-04-16T17:59:28.918Z,100290.00
2023-04-16T18:01:56.776Z,100298.69
2023-04-16T18:04:23.663Z,100301.13
2023-04-16T18:06:50.791Z,100296.38
2023-04-16T18:09:19.074Z,100296.97
2023-04-16T18:11:45.669Z,100306.13
2023-04-16T18:14:16.740Z,100301.25
2023-04-16T18:16:43.845Z,100312.16
2023-04-16T18:19:11.370Z,100309.72
2023-04-16T18:21:37.946Z,100314.59
2023-04-16T18:24:05.419Z,100321.34
2023-04-16T18:26:35.639Z,100312.50
2023-04-16T18:29:03.092Z,100317.97
2023-04-16T18:31:30.384Z,100323.19
2023-04-16T18:33:58.251Z,100324.44
2023-04-16T18:36:26.810Z,100321.66
2023-04-16T18:39:01.772Z,100325.38
2023-04-16T18:41:30.792Z,100333.28
2023-04-16T18:43:57.513Z,100338.47
2023-04-16T18:46:24.331Z,100339.41
2023-04-16T18:48:50.935Z,100335.94
2023-04-16T18:51:17.712Z,100341.03
2023-04-16T18:53:45.763Z,100337.31
2023-04-16T18:56:12.587Z,100344.63
2023-04-16T18:58:39.075Z,100342.28
2023-04-16T19:01:10.838Z,100343.56
2023-04-16T19:03:38.560Z,100340.91
2023-04-16T19:06:05.939Z,100344.84
2023-04-16T19:08:32.532Z,100345.34
2023-04-16T19:10:59.135Z,100346.72
2023-04-16T19:13:25.593Z,100342.75
2023-04-16T19:15:57.628Z,100348.41
2023-04-16T19:18:24.255Z,100347.25
2023-04-16T19:20:50.830Z,100347.47
2023-04-16T19:23:17.437Z,100349.22
2023-04-16T19:25:44.003Z,100347.88
2023-04-16T19:28:10.577Z,100353.28
2023-04-16T19:30:37.110Z,100352.34
2023-04-16T19:33:03.680Z,100355.56
2023-04-16T19:35:30.650Z,100346.88
2023-04-16T19:37:58.030Z,100354.66
2023-04-16T19:40:24.577Z,100362.16
2023-04-16T19:42:51.040Z,100353.25
2023-04-16T19:45:18.393Z,100359.38
2023-04-16T19:47:45.495Z,100358.13
2023-04-16T19:50:12.308Z,100363.16
2023-04-16T19:52:39.092Z,100363.31
2023-04-16T19:55:07.016Z,100367.78
2023-04-16T19:57:33.622Z,100360.44
2023-04-16T20:00:00.433Z,100357.59
2023-04-16T20:02:27.169Z,100359.84
2023-04-16T20:04:53.817Z,100367.97
2023-04-16T20:07:20.604Z,100363.56
2023-04-16T20:09:47.088Z,100374.56
2023-04-16T20:12:14.273Z,100372.94
2023-04-16T20:14:41.900Z,100375.38
2023-04-16T20:17:09.976Z,100372.94
2023-04-16T20:19:40.120Z,100376.88
2023-04-16T20:22:07.054Z,100376.88
2023-04-16T20:24:34.320Z,100374.56
2023-04-16T20:27:01.766Z,100370.63
2023-04-16T20:29:28.344Z,100368.53
2023-04-16T20:31:54.818Z,100371.66
2023-04-16T20:34:21.554Z,100369.34
2023-04-16T20:36:48.397Z,100368.53
2023-04-16T20:39:20.157Z,100374.69
2023-04-16T20:41:56.549Z,100374.69
2023-04-16T20:44:26.398Z,100371.19
2023-04-16T20:46:54.863Z,100376.44
2023-04-16T20:49:21.578Z,100376.53
2023-04-16T20:51:48.034Z,100377.13
2023-04-16T20:54:14.468Z,100379.84
2023-04-16T20:56:40.895Z,100374.47
2023-04-16T20:59:07.283Z,100378.50
2023-04-16T21:01:33.791Z,100377.53
2023-04-16T21:04:01.561Z,100380.94
2023-04-16T21:06:28.198Z,100379.28
2023-04-16T21:08:54.636Z,100379.56
2023-04-16T21:11:21.058Z,100385.13
2023-04-16T21:13:47.489Z,100382.97
2023-04-16T21:16:13.997Z,100387.72
2023-04-16T21:18:40.695Z,100383.78
2023-04-16T21:21:07.240Z,100378.91
2023-04-16T21:23:33.603Z,100387.38
2023-04-16T21:26:00.095Z,100383.31
2023-04-16T21:28:26.598Z,100389.13
2023-04-16T21:30:53.693Z,100389.47
2023-04-16T21:33:20.578Z,100389.63
2023-04-16T21:35:56.028Z,100387.16
2023-04-16T21:38:22.737Z,100381.94
2023-04-16T21:40:51.246Z,100384.25
2023-04-16T21:43:17.931Z,100385.69
2023-04-16T21:45:44.429Z,100387.63
2023-04-16T21:48:11.033Z,100385.00
2023-04-16T21:50:37.808Z,100386.44
2023-04-16T21:53:06.290Z,100386.56
2023-04-16T21:55:34.636Z,100387.44
2023-04-16T21:58:01.689Z,100388.72
2023-04-16T22:00:28.309Z,100380.53
2023-04-16T22:02:56.145Z,100395.03
2023-04-16T22:05:26.024Z,100394.69
2023-04-16T22:07:53.922Z,100387.34
2023-04-16T22:10:20.632Z,100388.78
2023-04-16T22:12:47.138Z,100385.81
2023-04-16T22:15:14.106Z,100383.91
2023-04-16T22:17:41.071Z,100379.97
2023-04-16T22:20:14.084Z,100386.88
2023-04-16T22:22:41.840Z,100393.13
2023-04-16T22:25:09.367Z,100385.44
2023-04-16T22:27:36.262Z,100386.56
2023-04-16T22:30:03.906Z,100389.03
2023-04-16T22:32:30.940Z,100386.06
2023-04-16T22:34:57.608Z,100392.44
2023-04-16T22:37:24.180Z,100385.13
2023-04-16T22:39:50.784Z,100387.44
2023-04-16T22:42:17.268Z,100382.84
2023-04-16T22:44:43.623Z,100393.34
2023-04-16T22:47:10.113Z,100384.81
2023-04-16T22:49:36.489Z,100384.66
2023-04-16T22:52:03.208Z,100385.63
2023-04-16T22:54:30.463Z,100386.75
2023-04-16T22:56:57.573Z,100386.63
2023-04-16T22:59:24.519Z,100391.56
2023-04-16T23:01:51.360Z,100380.44
2023-04-16T23:04:18.166Z,100383.69
2023-04-16T23:06:44.619Z,100388.59
2023-04-16T23:09:11.220Z,100386.66
2023-04-16T23:11:37.785Z,100388.78
2023-04-16T23:14:05.068Z,100388.00
2023-04-16T23:16:32.087Z,100395.00
2023-04-16T23:18:58.824Z,100390.25
2023-04-16T23:21:29.729Z,100384.38
2023-04-16T23:23:57.212Z,100385.03
2023-04-16T23:26:23.916Z,100377.53
2023-04-16T23:28:50.806Z,100382.56
2023-04-16T23:31:18.753Z,100388.91
2023-04-16T23:33:45.569Z,100395.31
2023-04-16T23:36:12.202Z,100399.72
2023-04-16T23:38:38.885Z,100394.34
2023-04-16T23:41:05.901Z,100385.53
2023-04-16T23:43:32.538Z,100387.97
2023-04-16T23:45:59.250Z,100384.75
2023-04-16T23:48:25.938Z,100391.13
2023-04-16T23:50:52.421Z,100383.06
2023-04-16T23:53:18.893Z,100385.72
2023-04-16T23:55:45.607Z,100382.78
2023-04-16T23:58:12.256Z,100383.59
